If you wish to contribute or participate in the discussions about articles you are invited to join SKYbrary as a registered user

 Actions

Indian Mountain LRRS Airport

From SKYbrary Wiki

PAIM
Airport
ICAO: PAIM – IATA: UTO
Summary
Name Indian Mountain LRRS Airport
Region North America
Territory Alaska US.gif
Location Utopia Creek, Alaska
Serving Indian Mountains
Elevation 388.01 m
1,273 ft
1,273 ft388.01 m
Type medium airport
Coordinates 65° 59' 34.06" N, 153° 42' 15.44" W
Runways
Designator Length Width Surface ROPS
6/24 1250 m4,101.05 ft
37 m121.391 ft
GVL /


METAR
Observation PAIM 191855Z AUTO 09010KT 040V120 10SM -SHSN OVC055 M03/M07 A2954 RMK AO2 SNB1748E1852SHSNB1842 SLP025 T10311068
Station Utopia Creek, Indian Mountain LRRS Airport
Date/Time 19 October 2019 18:55:00
Wind direction 90°
Wind speed 10 kts
Lowest cloud amount overcast
Temperature
Dew point
Humidity 75%
QNH hPa
Weather condition light showers snow

Maps

Terrain

Loading map...

Airport Layout

Loading map...


Accidents & Serious Incidents at or in vicinity of PAIM

None on SKYbrary